sensor_id;sensor_type;location;lat;lon;timestamp;P1;durP1;ratioP1;P2;durP2;ratioP2
8419;SDS011;4247;48.550;8.822;2023-02-19T00:01:35;1.23;;;1.10;;
8419;SDS011;4247;48.550;8.822;2023-02-19T00:04:09;1.10;;;0.93;;
8419;SDS011;4247;48.550;8.822;2023-02-19T00:06:39;1.00;;;0.80;;
8419;SDS011;4247;48.550;8.822;2023-02-19T00:09:09;1.27;;;1.17;;
8419;SDS011;4247;48.550;8.822;2023-02-19T00:11:37;1.10;;;0.90;;
8419;SDS011;4247;48.550;8.822;2023-02-19T00:14:05;0.87;;;0.83;;
8419;SDS011;4247;48.550;8.822;2023-02-19T00:16:35;1.00;;;1.00;;
8419;SDS011;4247;48.550;8.822;2023-02-19T00:19:05;3.90;;;1.10;;
8419;SDS011;4247;48.550;8.822;2023-02-19T00:21:33;1.30;;;1.10;;
8419;SDS011;4247;48.550;8.822;2023-02-19T00:24:04;1.00;;;0.90;;
8419;SDS011;4247;48.550;8.822;2023-02-19T00:26:35;4.30;;;1.10;;
8419;SDS011;4247;48.550;8.822;2023-02-19T00:29:08;0.80;;;0.80;;
8419;SDS011;4247;48.550;8.822;2023-02-19T00:31:39;1.30;;;1.20;;
8419;SDS011;4247;48.550;8.822;2023-02-19T00:34:06;0.90;;;0.90;;
8419;SDS011;4247;48.550;8.822;2023-02-19T00:36:35;1.00;;;0.93;;
8419;SDS011;4247;48.550;8.822;2023-02-19T00:39:03;1.70;;;1.03;;
8419;SDS011;4247;48.550;8.822;2023-02-19T00:41:31;2.83;;;0.77;;
8419;SDS011;4247;48.550;8.822;2023-02-19T00:44:03;1.20;;;0.90;;
8419;SDS011;4247;48.550;8.822;2023-02-19T00:46:35;1.13;;;0.90;;
8419;SDS011;4247;48.550;8.822;2023-02-19T00:49:09;1.40;;;0.97;;
8419;SDS011;4247;48.550;8.822;2023-02-19T00:51:41;1.77;;;0.90;;
8419;SDS011;4247;48.550;8.822;2023-02-19T00:54:09;1.20;;;1.10;;
8419;SDS011;4247;48.550;8.822;2023-02-19T00:56:36;1.10;;;1.00;;
8419;SDS011;4247;48.550;8.822;2023-02-19T00:59:03;1.10;;;1.00;;
8419;SDS011;4247;48.550;8.822;2023-02-19T01:01:30;1.20;;;1.10;;
8419;SDS011;4247;48.550;8.822;2023-02-19T01:04:02;1.10;;;1.00;;
8419;SDS011;4247;48.550;8.822;2023-02-19T01:06:30;1.70;;;1.00;;
8419;SDS011;4247;48.550;8.822;2023-02-19T01:08:59;2.13;;;0.80;;
8419;SDS011;4247;48.550;8.822;2023-02-19T01:11:26;1.27;;;0.90;;
8419;SDS011;4247;48.550;8.822;2023-02-19T01:13:55;1.20;;;0.80;;
8419;SDS011;4247;48.550;8.822;2023-02-19T01:16:23;1.50;;;1.00;;
8419;SDS011;4247;48.550;8.822;2023-02-19T01:18:55;1.30;;;1.20;;
8419;SDS011;4247;48.550;8.822;2023-02-19T01:21:25;1.20;;;1.10;;
8419;SDS011;4247;48.550;8.822;2023-02-19T01:23:55;1.17;;;1.10;;
8419;SDS011;4247;48.550;8.822;2023-02-19T01:26:25;0.90;;;0.70;;
8419;SDS011;4247;48.550;8.822;2023-02-19T01:28:53;7.47;;;0.90;;
8419;SDS011;4247;48.550;8.822;2023-02-19T01:31:22;1.73;;;1.30;;
8419;SDS011;4247;48.550;8.822;2023-02-19T01:33:53;1.03;;;0.80;;
8419;SDS011;4247;48.550;8.822;2023-02-19T01:36:28;1.37;;;1.10;;
8419;SDS011;4247;48.550;8.822;2023-02-19T01:39:00;1.03;;;0.93;;
8419;SDS011;4247;48.550;8.822;2023-02-19T01:41:33;0.90;;;0.90;;
8419;SDS011;4247;48.550;8.822;2023-02-19T01:44:03;1.13;;;1.07;;
8419;SDS011;4247;48.550;8.822;2023-02-19T01:46:33;1.30;;;1.20;;
8419;SDS011;4247;48.550;8.822;2023-02-19T01:49:05;2.37;;;1.17;;
8419;SDS011;4247;48.550;8.822;2023-02-19T01:51:36;2.30;;;1.37;;
8419;SDS011;4247;48.550;8.822;2023-02-19T01:54:10;1.40;;;1.30;;
8419;SDS011;4247;48.550;8.822;2023-02-19T01:56:42;1.47;;;0.90;;
8419;SDS011;4247;48.550;8.822;2023-02-19T01:59:13;0.97;;;0.90;;
8419;SDS011;4247;48.550;8.822;2023-02-19T02:01:42;4.67;;;1.10;;
8419;SDS011;4247;48.550;8.822;2023-02-19T02:04:10;1.07;;;0.70;;
8419;SDS011;4247;48.550;8.822;2023-02-19T02:06:40;1.20;;;1.00;;
8419;SDS011;4247;48.550;8.822;2023-02-19T02:09:14;1.20;;;1.10;;
8419;SDS011;4247;48.550;8.822;2023-02-19T02:11:59;1.73;;;1.10;;
8419;SDS011;4247;48.550;8.822;2023-02-19T02:14:27;0.87;;;0.83;;
8419;SDS011;4247;48.550;8.822;2023-02-19T02:16:59;0.80;;;0.80;;
8419;SDS011;4247;48.550;8.822;2023-02-19T02:19:47;0.90;;;0.80;;
8419;SDS011;4247;48.550;8.822;2023-02-19T02:22:28;1.23;;;1.23;;
8419;SDS011;4247;48.550;8.822;2023-02-19T02:25:08;0.90;;;0.90;;
8419;SDS011;4247;48.550;8.822;2023-02-19T02:27:51;1.10;;;0.83;;
8419;SDS011;4247;48.550;8.822;2023-02-19T02:30:25;4.00;;;0.80;;
8419;SDS011;4247;48.550;8.822;2023-02-19T02:32:58;0.90;;;0.90;;
8419;SDS011;4247;48.550;8.822;2023-02-19T02:35:31;1.30;;;1.07;;
8419;SDS011;4247;48.550;8.822;2023-02-19T02:38:03;2.00;;;0.70;;
8419;SDS011;4247;48.550;8.822;2023-02-19T02:40:35;0.87;;;0.70;;
8419;SDS011;4247;48.550;8.822;2023-02-19T02:43:04;1.40;;;0.80;;
8419;SDS011;4247;48.550;8.822;2023-02-19T02:45:36;1.00;;;0.90;;
8419;SDS011;4247;48.550;8.822;2023-02-19T02:48:11;0.90;;;0.80;;
8419;SDS011;4247;48.550;8.822;2023-02-19T02:50:46;0.80;;;0.70;;
8419;SDS011;4247;48.550;8.822;2023-02-19T02:53:22;1.20;;;0.80;;
8419;SDS011;4247;48.550;8.822;2023-02-19T02:56:11;0.70;;;0.70;;
8419;SDS011;4247;48.550;8.822;2023-02-19T02:58:43;0.70;;;0.70;;
8419;SDS011;4247;48.550;8.822;2023-02-19T03:01:14;0.60;;;0.60;;
8419;SDS011;4247;48.550;8.822;2023-02-19T03:04:04;0.73;;;0.73;;
8419;SDS011;4247;48.550;8.822;2023-02-19T03:06:35;2.10;;;0.80;;
8419;SDS011;4247;48.550;8.822;2023-02-19T03:09:06;0.90;;;0.67;;
8419;SDS011;4247;48.550;8.822;2023-02-19T03:11:37;0.70;;;0.60;;
8419;SDS011;4247;48.550;8.822;2023-02-19T03:14:26;1.37;;;0.80;;
8419;SDS011;4247;48.550;8.822;2023-02-19T03:17:21;0.67;;;0.67;;
8419;SDS011;4247;48.550;8.822;2023-02-19T03:20:11;0.70;;;0.70;;
8419;SDS011;4247;48.550;8.822;2023-02-19T03:22:41;0.90;;;0.67;;
8419;SDS011;4247;48.550;8.822;2023-02-19T03:25:13;0.80;;;0.70;;
8419;SDS011;4247;48.550;8.822;2023-02-19T03:28:04;0.93;;;0.90;;
8419;SDS011;4247;48.550;8.822;2023-02-19T03:30:39;0.80;;;0.80;;
8419;SDS011;4247;48.550;8.822;2023-02-19T03:33:11;0.60;;;0.60;;
8419;SDS011;4247;48.550;8.822;2023-02-19T03:35:42;1.23;;;0.70;;
8419;SDS011;4247;48.550;8.822;2023-02-19T03:38:14;1.00;;;0.70;;
8419;SDS011;4247;48.550;8.822;2023-02-19T03:40:51;0.70;;;0.70;;
8419;SDS011;4247;48.550;8.822;2023-02-19T03:43:30;2.17;;;0.73;;
8419;SDS011;4247;48.550;8.822;2023-02-19T03:46:05;1.37;;;0.80;;
8419;SDS011;4247;48.550;8.822;2023-02-19T03:48:40;1.70;;;0.60;;
8419;SDS011;4247;48.550;8.822;2023-02-19T03:51:17;1.70;;;0.77;;
8419;SDS011;4247;48.550;8.822;2023-02-19T03:53:52;0.60;;;0.60;;
8419;SDS011;4247;48.550;8.822;2023-02-19T03:56:25;0.70;;;0.70;;
8419;SDS011;4247;48.550;8.822;2023-02-19T03:58:59;1.27;;;0.60;;
8419;SDS011;4247;48.550;8.822;2023-02-19T04:01:31;1.00;;;0.73;;
8419;SDS011;4247;48.550;8.822;2023-02-19T04:04:07;1.23;;;0.67;;
8419;SDS011;4247;48.550;8.822;2023-02-19T04:06:38;0.60;;;0.60;;
8419;SDS011;4247;48.550;8.822;2023-02-19T04:09:07;0.87;;;0.77;;
8419;SDS011;4247;48.550;8.822;2023-02-19T04:11:39;0.60;;;0.60;;
8419;SDS011;4247;48.550;8.822;2023-02-19T04:14:07;0.53;;;0.53;;
8419;SDS011;4247;48.550;8.822;2023-02-19T04:16:39;1.13;;;0.80;;
8419;SDS011;4247;48.550;8.822;2023-02-19T04:19:12;1.80;;;0.60;;
8419;SDS011;4247;48.550;8.822;2023-02-19T04:21:43;3.30;;;0.60;;
8419;SDS011;4247;48.550;8.822;2023-02-19T04:24:13;1.07;;;0.50;;
8419;SDS011;4247;48.550;8.822;2023-02-19T04:26:45;0.60;;;0.60;;
8419;SDS011;4247;48.550;8.822;2023-02-19T04:29:14;0.40;;;0.40;;
8419;SDS011;4247;48.550;8.822;2023-02-19T04:31:41;0.53;;;0.53;;
8419;SDS011;4247;48.550;8.822;2023-02-19T04:34:08;0.50;;;0.50;;
8419;SDS011;4247;48.550;8.822;2023-02-19T04:36:36;0.40;;;0.40;;
8419;SDS011;4247;48.550;8.822;2023-02-19T04:39:04;0.40;;;0.40;;
8419;SDS011;4247;48.550;8.822;2023-02-19T04:41:33;2.10;;;0.30;;
8419;SDS011;4247;48.550;8.822;2023-02-19T04:44:00;0.30;;;0.30;;
8419;SDS011;4247;48.550;8.822;2023-02-19T04:46:27;0.30;;;0.30;;
8419;SDS011;4247;48.550;8.822;2023-02-19T04:48:54;0.30;;;0.30;;
8419;SDS011;4247;48.550;8.822;2023-02-19T04:51:21;0.20;;;0.20;;
8419;SDS011;4247;48.550;8.822;2023-02-19T04:53:51;0.30;;;0.20;;
8419;SDS011;4247;48.550;8.822;2023-02-19T04:56:20;0.20;;;0.20;;
8419;SDS011;4247;48.550;8.822;2023-02-19T04:58:47;0.20;;;0.20;;
8419;SDS011;4247;48.550;8.822;2023-02-19T05:01:14;0.20;;;0.20;;
8419;SDS011;4247;48.550;8.822;2023-02-19T05:03:42;0.17;;;0.17;;
8419;SDS011;4247;48.550;8.822;2023-02-19T05:06:10;0.10;;;0.10;;
8419;SDS011;4247;48.550;8.822;2023-02-19T05:08:38;0.20;;;0.20;;
8419;SDS011;4247;48.550;8.822;2023-02-19T05:11:09;0.10;;;0.10;;
8419;SDS011;4247;48.550;8.822;2023-02-19T05:13:37;0.73;;;0.20;;
8419;SDS011;4247;48.550;8.822;2023-02-19T05:16:09;0.30;;;0.30;;
8419;SDS011;4247;48.550;8.822;2023-02-19T05:18:43;0.20;;;0.20;;
8419;SDS011;4247;48.550;8.822;2023-02-19T05:21:14;0.30;;;0.20;;
8419;SDS011;4247;48.550;8.822;2023-02-19T05:23:42;0.20;;;0.20;;
8419;SDS011;4247;48.550;8.822;2023-02-19T05:26:21;1.60;;;0.10;;
8419;SDS011;4247;48.550;8.822;2023-02-19T05:28:51;0.20;;;0.20;;
8419;SDS011;4247;48.550;8.822;2023-02-19T05:31:19;0.30;;;0.20;;
8419;SDS011;4247;48.550;8.822;2023-02-19T05:33:47;0.30;;;0.20;;
8419;SDS011;4247;48.550;8.822;2023-02-19T05:36:15;0.30;;;0.20;;
8419;SDS011;4247;48.550;8.822;2023-02-19T05:38:43;0.30;;;0.30;;
8419;SDS011;4247;48.550;8.822;2023-02-19T05:41:13;0.20;;;0.13;;
8419;SDS011;4247;48.550;8.822;2023-02-19T05:43:45;0.20;;;0.20;;
8419;SDS011;4247;48.550;8.822;2023-02-19T05:46:14;0.20;;;0.20;;
8419;SDS011;4247;48.550;8.822;2023-02-19T05:48:45;0.20;;;0.20;;
8419;SDS011;4247;48.550;8.822;2023-02-19T05:51:13;0.10;;;0.10;;
8419;SDS011;4247;48.550;8.822;2023-02-19T05:53:42;0.10;;;0.10;;
8419;SDS011;4247;48.550;8.822;2023-02-19T05:56:20;0.20;;;0.20;;
8419;SDS011;4247;48.550;8.822;2023-02-19T05:58:56;1.13;;;0.10;;
8419;SDS011;4247;48.550;8.822;2023-02-19T06:01:24;0.10;;;0.10;;
8419;SDS011;4247;48.550;8.822;2023-02-19T06:03:52;0.20;;;0.20;;
8419;SDS011;4247;48.550;8.822;2023-02-19T06:06:20;0.10;;;0.10;;
8419;SDS011;4247;48.550;8.822;2023-02-19T06:08:50;0.20;;;0.20;;
8419;SDS011;4247;48.550;8.822;2023-02-19T06:11:18;0.20;;;0.20;;
8419;SDS011;4247;48.550;8.822;2023-02-19T06:13:47;0.10;;;0.10;;
8419;SDS011;4247;48.550;8.822;2023-02-19T06:16:16;0.00;;;0.00;;
8419;SDS011;4247;48.550;8.822;2023-02-19T06:18:45;0.10;;;0.10;;
8419;SDS011;4247;48.550;8.822;2023-02-19T06:21:13;0.10;;;0.10;;
8419;SDS011;4247;48.550;8.822;2023-02-19T06:23:42;0.10;;;0.10;;
8419;SDS011;4247;48.550;8.822;2023-02-19T06:26:11;0.47;;;0.10;;
8419;SDS011;4247;48.550;8.822;2023-02-19T06:28:43;0.10;;;0.10;;
8419;SDS011;4247;48.550;8.822;2023-02-19T06:31:15;0.00;;;0.00;;
8419;SDS011;4247;48.550;8.822;2023-02-19T06:33:46;0.20;;;0.10;;
8419;SDS011;4247;48.550;8.822;2023-02-19T06:36:15;0.30;;;0.30;;
8419;SDS011;4247;48.550;8.822;2023-02-19T06:38:44;1.27;;;0.50;;
8419;SDS011;4247;48.550;8.822;2023-02-19T06:41:11;0.73;;;0.60;;
8419;SDS011;4247;48.550;8.822;2023-02-19T06:43:39;0.20;;;0.20;;
8419;SDS011;4247;48.550;8.822;2023-02-19T06:46:06;0.30;;;0.30;;
8419;SDS011;4247;48.550;8.822;2023-02-19T06:48:35;0.00;;;0.00;;
8419;SDS011;4247;48.550;8.822;2023-02-19T06:51:04;0.00;;;0.00;;
8419;SDS011;4247;48.550;8.822;2023-02-19T06:53:31;0.00;;;0.00;;
8419;SDS011;4247;48.550;8.822;2023-02-19T06:55:59;0.00;;;0.00;;
8419;SDS011;4247;48.550;8.822;2023-02-19T06:58:27;0.03;;;0.00;;
8419;SDS011;4247;48.550;8.822;2023-02-19T07:00:57;0.10;;;0.10;;
8419;SDS011;4247;48.550;8.822;2023-02-19T07:03:24;0.10;;;0.10;;
8419;SDS011;4247;48.550;8.822;2023-02-19T07:05:53;0.10;;;0.10;;
8419;SDS011;4247;48.550;8.822;2023-02-19T07:08:20;0.10;;;0.10;;
8419;SDS011;4247;48.550;8.822;2023-02-19T07:10:52;0.07;;;0.07;;
8419;SDS011;4247;48.550;8.822;2023-02-19T07:13:21;0.10;;;0.10;;
8419;SDS011;4247;48.550;8.822;2023-02-19T07:15:50;0.13;;;0.10;;
8419;SDS011;4247;48.550;8.822;2023-02-19T07:18:18;0.10;;;0.10;;
8419;SDS011;4247;48.550;8.822;2023-02-19T07:20:45;0.10;;;0.10;;
8419;SDS011;4247;48.550;8.822;2023-02-19T07:23:13;0.10;;;0.10;;
8419;SDS011;4247;48.550;8.822;2023-02-19T07:25:40;0.13;;;0.10;;
8419;SDS011;4247;48.550;8.822;2023-02-19T07:28:08;0.10;;;0.10;;
8419;SDS011;4247;48.550;8.822;2023-02-19T07:30:35;0.00;;;0.00;;
8419;SDS011;4247;48.550;8.822;2023-02-19T07:33:02;1.90;;;1.20;;
8419;SDS011;4247;48.550;8.822;2023-02-19T07:35:29;0.20;;;0.20;;
8419;SDS011;4247;48.550;8.822;2023-02-19T07:37:56;2.57;;;1.80;;
8419;SDS011;4247;48.550;8.822;2023-02-19T07:40:25;0.27;;;0.20;;
8419;SDS011;4247;48.550;8.822;2023-02-19T07:42:52;0.20;;;0.20;;
8419;SDS011;4247;48.550;8.822;2023-02-19T07:45:19;0.20;;;0.20;;
8419;SDS011;4247;48.550;8.822;2023-02-19T07:47:47;3.13;;;0.70;;
8419;SDS011;4247;48.550;8.822;2023-02-19T07:50:16;0.40;;;0.40;;
8419;SDS011;4247;48.550;8.822;2023-02-19T07:52:43;1.03;;;0.73;;
8419;SDS011;4247;48.550;8.822;2023-02-19T07:55:11;0.20;;;0.20;;
8419;SDS011;4247;48.550;8.822;2023-02-19T07:57:39;0.80;;;0.80;;
8419;SDS011;4247;48.550;8.822;2023-02-19T08:00:10;0.30;;;0.30;;
8419;SDS011;4247;48.550;8.822;2023-02-19T08:02:37;1.13;;;0.30;;
8419;SDS011;4247;48.550;8.822;2023-02-19T08:05:22;0.50;;;0.50;;
8419;SDS011;4247;48.550;8.822;2023-02-19T08:07:49;0.40;;;0.40;;
8419;SDS011;4247;48.550;8.822;2023-02-19T08:10:16;0.60;;;0.40;;
8419;SDS011;4247;48.550;8.822;2023-02-19T08:13:02;0.67;;;0.20;;
8419;SDS011;4247;48.550;8.822;2023-02-19T08:15:48;0.40;;;0.40;;
8419;SDS011;4247;48.550;8.822;2023-02-19T08:18:19;0.47;;;0.23;;
8419;SDS011;4247;48.550;8.822;2023-02-19T08:20:48;0.23;;;0.23;;
8419;SDS011;4247;48.550;8.822;2023-02-19T08:23:15;0.20;;;0.20;;
8419;SDS011;4247;48.550;8.822;2023-02-19T08:25:44;0.13;;;0.10;;
8419;SDS011;4247;48.550;8.822;2023-02-19T08:28:14;0.10;;;0.10;;
8419;SDS011;4247;48.550;8.822;2023-02-19T08:30:41;0.50;;;0.40;;
8419;SDS011;4247;48.550;8.822;2023-02-19T08:33:13;0.17;;;0.10;;
8419;SDS011;4247;48.550;8.822;2023-02-19T08:35:44;0.10;;;0.10;;
8419;SDS011;4247;48.550;8.822;2023-02-19T08:38:12;0.30;;;0.30;;
8419;SDS011;4247;48.550;8.822;2023-02-19T08:40:41;0.30;;;0.30;;
8419;SDS011;4247;48.550;8.822;2023-02-19T08:43:09;0.33;;;0.30;;
8419;SDS011;4247;48.550;8.822;2023-02-19T08:45:39;0.20;;;0.20;;
8419;SDS011;4247;48.550;8.822;2023-02-19T08:48:07;0.17;;;0.17;;
8419;SDS011;4247;48.550;8.822;2023-02-19T08:50:36;0.23;;;0.20;;
8419;SDS011;4247;48.550;8.822;2023-02-19T08:53:05;0.57;;;0.57;;
8419;SDS011;4247;48.550;8.822;2023-02-19T08:55:32;0.50;;;0.50;;
8419;SDS011;4247;48.550;8.822;2023-02-19T08:57:59;0.50;;;0.20;;
8419;SDS011;4247;48.550;8.822;2023-02-19T09:00:26;0.10;;;0.10;;
8419;SDS011;4247;48.550;8.822;2023-02-19T09:03:00;0.20;;;0.20;;
8419;SDS011;4247;48.550;8.822;2023-02-19T09:05:29;0.30;;;0.20;;
8419;SDS011;4247;48.550;8.822;2023-02-19T09:07:56;0.20;;;0.20;;
8419;SDS011;4247;48.550;8.822;2023-02-19T09:10:23;0.60;;;0.20;;
8419;SDS011;4247;48.550;8.822;2023-02-19T09:12:50;0.20;;;0.20;;
8419;SDS011;4247;48.550;8.822;2023-02-19T09:15:17;0.20;;;0.20;;
8419;SDS011;4247;48.550;8.822;2023-02-19T09:17:44;0.20;;;0.20;;
8419;SDS011;4247;48.550;8.822;2023-02-19T09:20:12;0.90;;;0.70;;
8419;SDS011;4247;48.550;8.822;2023-02-19T09:22:39;0.50;;;0.33;;
8419;SDS011;4247;48.550;8.822;2023-02-19T09:25:09;3.10;;;0.53;;
8419;SDS011;4247;48.550;8.822;2023-02-19T09:27:36;1.70;;;0.40;;
8419;SDS011;4247;48.550;8.822;2023-02-19T09:30:03;0.50;;;0.50;;
8419;SDS011;4247;48.550;8.822;2023-02-19T09:32:31;0.30;;;0.30;;
8419;SDS011;4247;48.550;8.822;2023-02-19T09:34:58;0.40;;;0.40;;
8419;SDS011;4247;48.550;8.822;2023-02-19T09:37:29;0.77;;;0.20;;
8419;SDS011;4247;48.550;8.822;2023-02-19T09:39:57;0.63;;;0.40;;
8419;SDS011;4247;48.550;8.822;2023-02-19T09:42:28;1.23;;;0.40;;
8419;SDS011;4247;48.550;8.822;2023-02-19T09:45:01;2.20;;;0.30;;
8419;SDS011;4247;48.550;8.822;2023-02-19T09:47:35;0.20;;;0.20;;
8419;SDS011;4247;48.550;8.822;2023-02-19T09:50:04;0.27;;;0.20;;
8419;SDS011;4247;48.550;8.822;2023-02-19T09:52:35;0.40;;;0.40;;
8419;SDS011;4247;48.550;8.822;2023-02-19T09:59:02;0.73;;;0.50;;
8419;SDS011;4247;48.550;8.822;2023-02-19T10:01:33;2.80;;;0.83;;
8419;SDS011;4247;48.550;8.822;2023-02-19T10:04:09;2.63;;;1.00;;
8419;SDS011;4247;48.550;8.822;2023-02-19T10:06:37;1.03;;;0.90;;
8419;SDS011;4247;48.550;8.822;2023-02-19T10:09:12;3.63;;;0.73;;
8419;SDS011;4247;48.550;8.822;2023-02-19T10:11:46;2.07;;;0.87;;
8419;SDS011;4247;48.550;8.822;2023-02-19T10:14:15;3.30;;;1.37;;
8419;SDS011;4247;48.550;8.822;2023-02-19T10:16:48;1.20;;;1.10;;
8419;SDS011;4247;48.550;8.822;2023-02-19T10:19:15;0.47;;;0.30;;
8419;SDS011;4247;48.550;8.822;2023-02-19T10:21:43;1.40;;;0.70;;
8419;SDS011;4247;48.550;8.822;2023-02-19T10:24:18;1.73;;;1.43;;
8419;SDS011;4247;48.550;8.822;2023-02-19T10:26:50;0.70;;;0.60;;
8419;SDS011;4247;48.550;8.822;2023-02-19T10:29:18;0.70;;;0.70;;
8419;SDS011;4247;48.550;8.822;2023-02-19T10:31:46;0.40;;;0.40;;
8419;SDS011;4247;48.550;8.822;2023-02-19T10:34:16;0.70;;;0.60;;
8419;SDS011;4247;48.550;8.822;2023-02-19T10:36:46;0.43;;;0.43;;
8419;SDS011;4247;48.550;8.822;2023-02-19T10:39:27;0.40;;;0.40;;
8419;SDS011;4247;48.550;8.822;2023-02-19T10:42:03;0.57;;;0.30;;
8419;SDS011;4247;48.550;8.822;2023-02-19T10:44:32;0.70;;;0.70;;
8419;SDS011;4247;48.550;8.822;2023-02-19T10:47:07;2.67;;;0.60;;
8419;SDS011;4247;48.550;8.822;2023-02-19T10:49:43;2.00;;;0.63;;
8419;SDS011;4247;48.550;8.822;2023-02-19T10:52:13;1.27;;;0.60;;
8419;SDS011;4247;48.550;8.822;2023-02-19T10:54:48;1.10;;;0.73;;
8419;SDS011;4247;48.550;8.822;2023-02-19T10:57:25;0.87;;;0.83;;
8419;SDS011;4247;48.550;8.822;2023-02-19T10:59:57;1.40;;;0.50;;
8419;SDS011;4247;48.550;8.822;2023-02-19T11:02:27;1.47;;;0.60;;
8419;SDS011;4247;48.550;8.822;2023-02-19T11:05:03;0.40;;;0.30;;
8419;SDS011;4247;48.550;8.822;2023-02-19T11:07:35;3.93;;;0.90;;
8419;SDS011;4247;48.550;8.822;2023-02-19T11:10:17;0.87;;;0.40;;
8419;SDS011;4247;48.550;8.822;2023-02-19T11:12:46;1.40;;;0.60;;
8419;SDS011;4247;48.550;8.822;2023-02-19T11:15:18;0.70;;;0.50;;
8419;SDS011;4247;48.550;8.822;2023-02-19T11:17:53;1.30;;;0.50;;
8419;SDS011;4247;48.550;8.822;2023-02-19T11:20:21;2.87;;;0.30;;
8419;SDS011;4247;48.550;8.822;2023-02-19T11:22:48;0.50;;;0.30;;
8419;SDS011;4247;48.550;8.822;2023-02-19T11:25:27;3.30;;;0.30;;
8419;SDS011;4247;48.550;8.822;2023-02-19T11:27:58;0.47;;;0.40;;
8419;SDS011;4247;48.550;8.822;2023-02-19T11:30:33;0.63;;;0.20;;
8419;SDS011;4247;48.550;8.822;2023-02-19T11:33:12;6.00;;;0.60;;
8419;SDS011;4247;48.550;8.822;2023-02-19T11:35:57;1.40;;;0.30;;
8419;SDS011;4247;48.550;8.822;2023-02-19T11:38:42;4.23;;;0.30;;
8419;SDS011;4247;48.550;8.822;2023-02-19T11:41:12;1.40;;;0.40;;
8419;SDS011;4247;48.550;8.822;2023-02-19T11:43:50;2.43;;;0.33;;
8419;SDS011;4247;48.550;8.822;2023-02-19T11:46:28;1.57;;;0.20;;
8419;SDS011;4247;48.550;8.822;2023-02-19T11:49:03;0.20;;;0.20;;
8419;SDS011;4247;48.550;8.822;2023-02-19T11:54:39;5.80;;;0.30;;
8419;SDS011;4247;48.550;8.822;2023-02-19T11:57:23;0.67;;;0.40;;
8419;SDS011;4247;48.550;8.822;2023-02-19T12:00:08;1.90;;;0.30;;
8419;SDS011;4247;48.550;8.822;2023-02-19T12:05:55;0.30;;;0.30;;
8419;SDS011;4247;48.550;8.822;2023-02-19T12:08:54;0.53;;;0.37;;
8419;SDS011;4247;48.550;8.822;2023-02-19T12:11:50;4.80;;;0.60;;
8419;SDS011;4247;48.550;8.822;2023-02-19T12:14:55;0.63;;;0.37;;
8419;SDS011;4247;48.550;8.822;2023-02-19T12:17:37;2.63;;;0.93;;
8419;SDS011;4247;48.550;8.822;2023-02-19T12:20:16;2.57;;;0.70;;
8419;SDS011;4247;48.550;8.822;2023-02-19T12:22:52;1.93;;;0.67;;
8419;SDS011;4247;48.550;8.822;2023-02-19T12:25:32;1.07;;;0.43;;
8419;SDS011;4247;48.550;8.822;2023-02-19T12:28:29;0.47;;;0.47;;
8419;SDS011;4247;48.550;8.822;2023-02-19T12:31:22;0.40;;;0.30;;
8419;SDS011;4247;48.550;8.822;2023-02-19T12:34:15;2.43;;;0.30;;
8419;SDS011;4247;48.550;8.822;2023-02-19T12:36:56;1.33;;;0.80;;
8419;SDS011;4247;48.550;8.822;2023-02-19T12:39:33;2.60;;;0.50;;
8419;SDS011;4247;48.550;8.822;2023-02-19T12:42:07;1.63;;;0.97;;
8419;SDS011;4247;48.550;8.822;2023-02-19T12:44:50;1.30;;;1.20;;
8419;SDS011;4247;48.550;8.822;2023-02-19T12:47:27;2.20;;;0.70;;
8419;SDS011;4247;48.550;8.822;2023-02-19T12:50:00;1.70;;;0.80;;
8419;SDS011;4247;48.550;8.822;2023-02-19T12:52:31;1.30;;;0.73;;
8419;SDS011;4247;48.550;8.822;2023-02-19T12:55:06;1.60;;;0.40;;
8419;SDS011;4247;48.550;8.822;2023-02-19T12:57:45;2.70;;;0.40;;
8419;SDS011;4247;48.550;8.822;2023-02-19T13:00:18;0.57;;;0.50;;
8419;SDS011;4247;48.550;8.822;2023-02-19T13:02:57;0.40;;;0.30;;
8419;SDS011;4247;48.550;8.822;2023-02-19T13:05:30;1.00;;;0.93;;
8419;SDS011;4247;48.550;8.822;2023-02-19T13:08:10;1.83;;;0.40;;
8419;SDS011;4247;48.550;8.822;2023-02-19T13:10:44;0.93;;;0.40;;
8419;SDS011;4247;48.550;8.822;2023-02-19T13:13:18;2.27;;;0.40;;
8419;SDS011;4247;48.550;8.822;2023-02-19T13:15:56;1.00;;;0.40;;
8419;SDS011;4247;48.550;8.822;2023-02-19T13:18:30;0.30;;;0.20;;
8419;SDS011;4247;48.550;8.822;2023-02-19T13:21:02;0.60;;;0.20;;
8419;SDS011;4247;48.550;8.822;2023-02-19T13:23:30;1.97;;;0.30;;
8419;SDS011;4247;48.550;8.822;2023-02-19T13:26:33;1.37;;;0.60;;
8419;SDS011;4247;48.550;8.822;2023-02-19T13:32:26;0.40;;;0.20;;
8419;SDS011;4247;48.550;8.822;2023-02-19T13:35:15;2.47;;;0.43;;
8419;SDS011;4247;48.550;8.822;2023-02-19T13:37:49;0.60;;;0.30;;
8419;SDS011;4247;48.550;8.822;2023-02-19T13:40:19;2.27;;;0.37;;
8419;SDS011;4247;48.550;8.822;2023-02-19T13:42:53;1.37;;;0.30;;
8419;SDS011;4247;48.550;8.822;2023-02-19T13:45:22;1.47;;;0.40;;
8419;SDS011;4247;48.550;8.822;2023-02-19T13:47:58;1.97;;;0.60;;
8419;SDS011;4247;48.550;8.822;2023-02-19T13:50:29;0.20;;;0.20;;
8419;SDS011;4247;48.550;8.822;2023-02-19T13:52:57;1.03;;;0.40;;
8419;SDS011;4247;48.550;8.822;2023-02-19T13:58:36;1.63;;;0.37;;
8419;SDS011;4247;48.550;8.822;2023-02-19T14:01:05;1.73;;;0.30;;
8419;SDS011;4247;48.550;8.822;2023-02-19T14:03:43;1.33;;;0.40;;
8419;SDS011;4247;48.550;8.822;2023-02-19T14:06:16;1.90;;;0.43;;
8419;SDS011;4247;48.550;8.822;2023-02-19T14:08:50;4.03;;;0.70;;
8419;SDS011;4247;48.550;8.822;2023-02-19T14:14:27;0.53;;;0.33;;
8419;SDS011;4247;48.550;8.822;2023-02-19T14:17:00;3.67;;;0.87;;
8419;SDS011;4247;48.550;8.822;2023-02-19T14:19:49;2.63;;;0.47;;
8419;SDS011;4247;48.550;8.822;2023-02-19T14:25:28;3.10;;;0.50;;
8419;SDS011;4247;48.550;8.822;2023-02-19T14:28:08;3.30;;;0.30;;
8419;SDS011;4247;48.550;8.822;2023-02-19T14:30:55;6.40;;;0.57;;
8419;SDS011;4247;48.550;8.822;2023-02-19T14:33:25;1.30;;;0.50;;
8419;SDS011;4247;48.550;8.822;2023-02-19T14:35:54;0.67;;;0.40;;
8419;SDS011;4247;48.550;8.822;2023-02-19T14:38:27;5.07;;;0.60;;
8419;SDS011;4247;48.550;8.822;2023-02-19T14:40:57;2.57;;;0.53;;
8419;SDS011;4247;48.550;8.822;2023-02-19T14:43:28;2.00;;;1.20;;
8419;SDS011;4247;48.550;8.822;2023-02-19T14:45:56;2.70;;;0.80;;
8419;SDS011;4247;48.550;8.822;2023-02-19T14:48:30;1.23;;;0.90;;
8419;SDS011;4247;48.550;8.822;2023-02-19T14:51:01;2.57;;;0.77;;
8419;SDS011;4247;48.550;8.822;2023-02-19T14:53:35;3.83;;;0.80;;
8419;SDS011;4247;48.550;8.822;2023-02-19T14:56:15;1.30;;;0.73;;
8419;SDS011;4247;48.550;8.822;2023-02-19T14:58:46;2.97;;;0.87;;
8419;SDS011;4247;48.550;8.822;2023-02-19T15:01:31;1.00;;;0.50;;
8419;SDS011;4247;48.550;8.822;2023-02-19T15:03:58;2.77;;;0.87;;
8419;SDS011;4247;48.550;8.822;2023-02-19T15:06:26;7.17;;;0.70;;
8419;SDS011;4247;48.550;8.822;2023-02-19T15:08:59;3.33;;;0.50;;
8419;SDS011;4247;48.550;8.822;2023-02-19T15:11:29;1.27;;;0.50;;
8419;SDS011;4247;48.550;8.822;2023-02-19T15:13:58;2.10;;;0.40;;
8419;SDS011;4247;48.550;8.822;2023-02-19T15:16:28;2.07;;;0.70;;
8419;SDS011;4247;48.550;8.822;2023-02-19T15:18:57;2.70;;;0.70;;
8419;SDS011;4247;48.550;8.822;2023-02-19T15:21:26;2.60;;;0.90;;
8419;SDS011;4247;48.550;8.822;2023-02-19T15:23:55;6.47;;;1.47;;
8419;SDS011;4247;48.550;8.822;2023-02-19T15:26:26;6.97;;;1.00;;
8419;SDS011;4247;48.550;8.822;2023-02-19T15:29:00;3.23;;;1.07;;
8419;SDS011;4247;48.550;8.822;2023-02-19T15:31:29;0.60;;;0.60;;
8419;SDS011;4247;48.550;8.822;2023-02-19T15:33:56;1.70;;;0.50;;
8419;SDS011;4247;48.550;8.822;2023-02-19T15:36:24;0.60;;;0.60;;
8419;SDS011;4247;48.550;8.822;2023-02-19T15:38:54;1.43;;;0.67;;
8419;SDS011;4247;48.550;8.822;2023-02-19T15:41:28;1.80;;;1.10;;
8419;SDS011;4247;48.550;8.822;2023-02-19T15:44:09;2.50;;;1.00;;
8419;SDS011;4247;48.550;8.822;2023-02-19T15:46:54;0.80;;;0.80;;
8419;SDS011;4247;48.550;8.822;2023-02-19T15:49:23;2.20;;;0.70;;
8419;SDS011;4247;48.550;8.822;2023-02-19T15:51:56;1.70;;;0.53;;
8419;SDS011;4247;48.550;8.822;2023-02-19T15:54:27;1.73;;;0.70;;
8419;SDS011;4247;48.550;8.822;2023-02-19T15:57:01;0.87;;;0.60;;
8419;SDS011;4247;48.550;8.822;2023-02-19T15:59:32;1.77;;;0.60;;
8419;SDS011;4247;48.550;8.822;2023-02-19T16:02:04;0.50;;;0.50;;
8419;SDS011;4247;48.550;8.822;2023-02-19T16:04:42;1.20;;;0.60;;
8419;SDS011;4247;48.550;8.822;2023-02-19T16:07:23;1.13;;;0.63;;
8419;SDS011;4247;48.550;8.822;2023-02-19T16:12:56;2.20;;;0.50;;